Time;durP1;ratioP1;P1;durP2;ratioP2;P2;SDS_P1;SDS_P2;PMS_P1;PMS_P2;Temp;Humidity;BMP_temperature;BMP_pressure;BME280_temperature;BME280_humidity;BME280_pressure;Samples;Min_cycle;Max_cycle;Signal;HPM_P1;HPM_P2
2022/03/11 00:01:12;;;;;;;10.37;8.03;;;;;;;;;;4911351;29;20651;-73
2022/03/11 00:03:37;;;;;;;10.20;7.80;;;;;;;;;;4877802;29;20216;-72
2022/03/11 00:06:06;;;;;;;10.40;8.00;;;;;;;;;;4919809;29;20236;-72
2022/03/11 00:08:33;;;;;;;11.20;7.60;;;;;;;;;;4899208;29;20231;-71
2022/03/11 00:10:59;;;;;;;9.27;7.80;;;;;;;;;;4914747;29;20699;-72
2022/03/11 00:13:29;;;;;;;8.87;7.60;;;;;;;;;;4906676;29;20291;-73
2022/03/11 00:15:55;;;;;;;12.90;7.50;;;;;;;;;;4885612;29;20252;-73
2022/03/11 00:18:21;;;;;;;12.43;8.60;;;;;;;;;;4924583;29;20240;-72
2022/03/11 00:20:47;;;;;;;9.90;7.63;;;;;;;;;;4920220;29;20227;-71
2022/03/11 00:23:13;;;;;;;9.83;7.67;;;;;;;;;;4913644;29;20256;-72
2022/03/11 00:25:39;;;;;;;11.80;8.77;;;;;;;;;;4915535;29;20316;-71
2022/03/11 00:28:07;;;;;;;10.93;8.10;;;;;;;;;;4915505;29;20239;-71
2022/03/11 00:30:33;;;;;;;12.23;8.10;;;;;;;;;;4919073;29;20235;-71
2022/03/11 00:32:58;;;;;;;9.60;7.30;;;;;;;;;;4914263;29;20232;-72
2022/03/11 00:35:26;;;;;;;9.40;7.50;;;;;;;;;;4898650;29;20220;-71
2022/03/11 00:37:54;;;;;;;9.53;7.73;;;;;;;;;;4900172;29;20711;-70
2022/03/11 00:40:22;;;;;;;9.57;7.67;;;;;;;;;;4915778;29;20228;-71
2022/03/11 00:42:47;;;;;;;11.90;8.70;;;;;;;;;;4915625;29;20241;-71
2022/03/11 00:45:13;;;;;;;11.43;8.07;;;;;;;;;;4897123;29;20719;-71
2022/03/11 00:47:43;;;;;;;10.63;7.77;;;;;;;;;;4883038;29;20779;-73
2022/03/11 00:50:11;;;;;;;9.67;7.57;;;;;;;;;;4892312;29;20220;-72
2022/03/11 00:52:37;;;;;;;9.13;7.67;;;;;;;;;;4883694;29;20336;-72
2022/03/11 00:55:05;;;;;;;9.33;7.67;;;;;;;;;;4883137;29;20709;-70
2022/03/11 00:57:31;;;;;;;10.50;8.10;;;;;;;;;;4913723;29;20236;-70
2022/03/11 00:59:59;;;;;;;11.33;8.63;;;;;;;;;;4886282;29;20212;-70
2022/03/11 01:02:26;;;;;;;10.07;7.53;;;;;;;;;;4888308;29;20258;-71
2022/03/11 01:04:52;;;;;;;11.70;7.60;;;;;;;;;;4885044;29;20735;-70
2022/03/11 01:07:17;;;;;;;10.33;7.77;;;;;;;;;;4894117;29;20232;-70
2022/03/11 01:09:43;;;;;;;11.27;7.90;;;;;;;;;;4882846;29;20219;-71
2022/03/11 01:12:08;;;;;;;10.23;7.63;;;;;;;;;;4901137;29;20751;-71
2022/03/11 01:14:34;;;;;;;10.03;7.20;;;;;;;;;;4871697;29;20264;-71
2022/03/11 01:16:59;;;;;;;11.07;7.60;;;;;;;;;;4914845;29;20247;-71
2022/03/11 01:19:25;;;;;;;9.07;6.80;;;;;;;;;;4881717;29;20751;-71
2022/03/11 01:21:53;;;;;;;10.43;7.33;;;;;;;;;;4871252;29;20712;-71
2022/03/11 01:24:21;;;;;;;9.80;7.63;;;;;;;;;;4876329;29;20306;-74
2022/03/11 01:26:46;;;;;;;10.63;7.53;;;;;;;;;;4912907;29;20704;-72
2022/03/11 01:29:13;;;;;;;9.83;7.03;;;;;;;;;;4914869;29;20274;-70
2022/03/11 01:31:42;;;;;;;8.43;6.97;;;;;;;;;;4911097;29;20322;-71
2022/03/11 01:34:08;;;;;;;9.13;6.80;;;;;;;;;;4915076;29;20212;-71
2022/03/11 01:36:34;;;;;;;9.30;6.90;;;;;;;;;;4899067;29;20667;-71
2022/03/11 01:39:04;;;;;;;7.77;6.67;;;;;;;;;;4882562;29;20227;-72
2022/03/11 01:41:30;;;;;;;9.17;7.53;;;;;;;;;;4900081;29;20236;-70
2022/03/11 01:44:10;;;;;;;11.00;7.13;;;;;;;;;;4904403;29;20238;-71
2022/03/11 01:46:38;;;;;;;9.00;6.67;;;;;;;;;;4887826;29;20255;-71
2022/03/11 01:49:09;;;;;;;10.10;7.57;;;;;;;;;;4909844;29;20327;-71
2022/03/11 01:51:41;;;;;;;9.03;6.87;;;;;;;;;;4899526;29;20238;-71
2022/03/11 01:54:09;;;;;;;9.63;6.37;;;;;;;;;;4906341;29;20810;-71
2022/03/11 01:56:41;;;;;;;9.27;6.77;;;;;;;;;;4888470;29;20224;-71
2022/03/11 01:59:07;;;;;;;8.47;6.17;;;;;;;;;;4914021;29;20259;-71
2022/03/11 02:01:33;;;;;;;8.80;6.60;;;;;;;;;;4919834;29;20228;-72
2022/03/11 02:03:58;;;;;;;9.03;6.97;;;;;;;;;;4903998;29;20239;-70
2022/03/11 02:06:24;;;;;;;8.80;6.83;;;;;;;;;;4872606;29;20236;-70
2022/03/11 02:08:52;;;;;;;7.83;6.07;;;;;;;;;;4905759;29;20224;-71
2022/03/11 02:11:21;;;;;;;7.87;6.67;;;;;;;;;;4920310;29;20231;-71
2022/03/11 02:13:53;;;;;;;8.40;6.57;;;;;;;;;;4920078;29;20228;-71
2022/03/11 02:16:26;;;;;;;7.83;6.27;;;;;;;;;;4903606;29;20606;-70
2022/03/11 02:18:52;;;;;;;8.33;6.23;;;;;;;;;;4918812;29;20232;-72
2022/03/11 02:21:18;;;;;;;9.07;6.43;;;;;;;;;;4914813;29;20688;-71
2022/03/11 02:23:47;;;;;;;6.97;6.27;;;;;;;;;;4913292;29;20315;-71
2022/03/11 02:26:19;;;;;;;8.10;6.20;;;;;;;;;;4921500;29;20223;-70
2022/03/11 02:28:45;;;;;;;6.73;5.43;;;;;;;;;;4882893;29;20240;-70
2022/03/11 02:31:10;;;;;;;8.43;6.20;;;;;;;;;;4925149;29;20259;-73
2022/03/11 02:33:38;;;;;;;9.63;6.37;;;;;;;;;;4913353;29;20291;-72
2022/03/11 02:36:09;;;;;;;8.10;6.13;;;;;;;;;;4913891;29;20217;-71
2022/03/11 02:38:35;;;;;;;8.90;5.93;;;;;;;;;;4919483;29;20232;-71
2022/03/11 02:41:01;;;;;;;8.20;6.00;;;;;;;;;;4923000;29;20275;-72
2022/03/11 02:43:28;;;;;;;9.10;6.00;;;;;;;;;;4920278;29;20704;-73
2022/03/11 02:45:54;;;;;;;8.87;6.27;;;;;;;;;;4886013;29;20298;-70
2022/03/11 02:48:19;;;;;;;8.07;6.27;;;;;;;;;;4902711;29;20379;-70
2022/03/11 02:50:48;;;;;;;9.47;6.57;;;;;;;;;;4888185;29;20291;-71
2022/03/11 02:53:13;;;;;;;8.63;6.17;;;;;;;;;;4918713;29;20704;-72
2022/03/11 02:55:44;;;;;;;7.57;6.10;;;;;;;;;;4902206;29;20234;-70
2022/03/11 02:58:12;;;;;;;7.60;5.97;;;;;;;;;;4900265;29;20240;-73
2022/03/11 03:00:38;;;;;;;9.23;6.17;;;;;;;;;;4882490;29;20225;-71
2022/03/11 03:03:03;;;;;;;10.03;5.60;;;;;;;;;;4875101;29;20228;-71
2022/03/11 03:05:29;;;;;;;8.27;6.00;;;;;;;;;;4915590;29;20232;-72
2022/03/11 03:08:00;;;;;;;10.80;6.00;;;;;;;;;;4918362;29;20319;-71
2022/03/11 03:10:25;;;;;;;8.57;5.93;;;;;;;;;;4905061;29;20638;-71
2022/03/11 03:12:54;;;;;;;7.83;6.00;;;;;;;;;;4915738;29;20281;-71
2022/03/11 03:15:22;;;;;;;7.87;5.93;;;;;;;;;;4910744;29;20228;-71
2022/03/11 03:17:48;;;;;;;8.23;6.40;;;;;;;;;;4900746;29;20228;-70
2022/03/11 03:20:16;;;;;;;7.50;5.90;;;;;;;;;;4891230;29;20239;-72
2022/03/11 03:22:44;;;;;;;8.23;6.00;;;;;;;;;;4893060;29;20307;-71
2022/03/11 03:25:09;;;;;;;9.37;6.53;;;;;;;;;;4899638;29;20283;-71
2022/03/11 03:27:35;;;;;;;8.33;5.90;;;;;;;;;;4913110;29;20299;-70
2022/03/11 03:30:01;;;;;;;8.73;6.07;;;;;;;;;;4912575;29;20248;-72
2022/03/11 03:32:27;;;;;;;9.60;6.27;;;;;;;;;;4925986;29;20243;-72
2022/03/11 03:34:53;;;;;;;9.20;6.53;;;;;;;;;;4909415;29;20254;-71
2022/03/11 03:37:21;;;;;;;7.53;5.87;;;;;;;;;;4925716;29;20308;-71
2022/03/11 03:39:48;;;;;;;7.93;5.90;;;;;;;;;;4890553;29;20228;-72
2022/03/11 03:42:14;;;;;;;7.77;6.07;;;;;;;;;;4914620;29;20220;-71
2022/03/11 03:44:40;;;;;;;9.47;6.60;;;;;;;;;;4899310;29;20251;-71
2022/03/11 03:47:05;;;;;;;11.40;6.30;;;;;;;;;;4896610;29;20240;-69
2022/03/11 03:49:31;;;;;;;9.03;6.20;;;;;;;;;;4916240;29;20315;-72
2022/03/11 03:51:56;;;;;;;8.47;6.40;;;;;;;;;;4915671;29;20262;-71
2022/03/11 03:54:22;;;;;;;8.87;6.40;;;;;;;;;;4902560;29;20258;-71
2022/03/11 03:56:48;;;;;;;8.67;6.37;;;;;;;;;;4883614;29;20379;-70
2022/03/11 03:59:13;;;;;;;8.83;6.60;;;;;;;;;;4867940;29;20225;-70
2022/03/11 04:01:40;;;;;;;9.57;7.10;;;;;;;;;;4883330;29;20658;-73
2022/03/11 04:04:06;;;;;;;8.17;6.20;;;;;;;;;;4915418;29;20704;-71
2022/03/11 04:06:38;;;;;;;8.57;6.50;;;;;;;;;;4915421;29;20236;-71
2022/03/11 04:09:06;;;;;;;10.67;7.20;;;;;;;;;;4880761;29;20236;-72
2022/03/11 04:11:37;;;;;;;8.37;6.70;;;;;;;;;;4877136;29;20307;-70
2022/03/11 04:14:02;;;;;;;7.50;6.43;;;;;;;;;;4887312;29;20719;-71
2022/03/11 04:16:28;;;;;;;11.20;6.53;;;;;;;;;;4915749;29;20236;-70
2022/03/11 04:18:53;;;;;;;8.33;6.50;;;;;;;;;;4916498;29;20337;-72
2022/03/11 04:21:21;;;;;;;9.67;6.20;;;;;;;;;;4899666;29;20242;-69
2022/03/11 04:23:50;;;;;;;9.87;6.50;;;;;;;;;;4900769;29;20618;-72
2022/03/11 04:26:18;;;;;;;9.60;6.33;;;;;;;;;;4915915;29;20228;-71
2022/03/11 04:28:43;;;;;;;9.00;6.60;;;;;;;;;;4885614;29;20244;-70
2022/03/11 04:31:10;;;;;;;12.30;6.77;;;;;;;;;;4882089;29;20283;-73
2022/03/11 04:33:36;;;;;;;10.77;6.60;;;;;;;;;;4922733;29;20682;-72
2022/03/11 04:36:04;;;;;;;10.30;6.17;;;;;;;;;;4902188;29;20783;-70
2022/03/11 04:38:32;;;;;;;9.50;6.53;;;;;;;;;;4911758;29;20228;-71
2022/03/11 04:40:57;;;;;;;7.23;6.07;;;;;;;;;;4909428;29;20259;-72
2022/03/11 04:43:25;;;;;;;8.63;6.40;;;;;;;;;;4877262;29;20231;-71
2022/03/11 04:45:53;;;;;;;11.90;6.70;;;;;;;;;;4908438;29;20787;-72
2022/03/11 04:48:19;;;;;;;8.90;6.47;;;;;;;;;;4899809;29;20277;-71
2022/03/11 04:50:44;;;;;;;11.73;7.00;;;;;;;;;;4925454;29;20228;-71
2022/03/11 04:53:12;;;;;;;8.70;6.43;;;;;;;;;;4921139;29;20250;-72
2022/03/11 04:55:38;;;;;;;8.67;6.40;;;;;;;;;;4917324;29;20239;-74
2022/03/11 04:58:03;;;;;;;9.73;7.00;;;;;;;;;;4883551;29;20224;-71
2022/03/11 05:00:29;;;;;;;10.13;6.97;;;;;;;;;;4895671;29;20340;-71
2022/03/11 05:02:55;;;;;;;10.97;7.20;;;;;;;;;;4912452;29;20247;-71
2022/03/11 05:05:21;;;;;;;9.00;6.83;;;;;;;;;;4914855;29;20243;-73
2022/03/11 05:07:46;;;;;;;8.27;6.30;;;;;;;;;;4898073;29;20687;-71
2022/03/11 05:10:15;;;;;;;10.23;6.63;;;;;;;;;;4881849;29;20220;-72
2022/03/11 05:12:41;;;;;;;10.93;7.03;;;;;;;;;;4914692;29;20586;-71
2022/03/11 05:15:07;;;;;;;9.13;7.07;;;;;;;;;;4882318;29;20235;-69
2022/03/11 05:17:35;;;;;;;9.17;6.73;;;;;;;;;;4897933;29;20228;-71
2022/03/11 05:20:06;;;;;;;10.73;7.30;;;;;;;;;;4867224;29;20278;-71
2022/03/11 05:22:41;;;;;;;12.50;6.83;;;;;;;;;;4889838;29;20303;-73
2022/03/11 05:25:10;;;;;;;8.63;6.23;;;;;;;;;;4894788;29;20668;-71
2022/03/11 05:27:37;;;;;;;10.13;6.90;;;;;;;;;;4890596;29;20269;-72
2022/03/11 05:30:06;;;;;;;9.63;6.77;;;;;;;;;;4914490;29;20227;-70
2022/03/11 05:32:31;;;;;;;9.90;6.37;;;;;;;;;;4897209;29;20232;-72
2022/03/11 05:34:57;;;;;;;9.97;6.70;;;;;;;;;;4899993;29;20219;-71
2022/03/11 05:37:22;;;;;;;10.43;7.00;;;;;;;;;;4897282;29;20240;-71
2022/03/11 05:39:48;;;;;;;10.40;6.93;;;;;;;;;;4915212;29;20379;-72
2022/03/11 05:42:16;;;;;;;10.63;6.83;;;;;;;;;;4889550;29;20512;-72
2022/03/11 05:44:41;;;;;;;9.23;6.83;;;;;;;;;;4901400;29;20739;-71
2022/03/11 05:47:10;;;;;;;9.47;6.90;;;;;;;;;;4892800;29;20236;-71
2022/03/11 05:49:36;;;;;;;9.80;6.30;;;;;;;;;;4884590;29;20230;-70
2022/03/11 05:52:01;;;;;;;10.63;6.57;;;;;;;;;;4883578;29;20622;-71
2022/03/11 05:54:27;;;;;;;8.97;6.93;;;;;;;;;;4915010;29;20228;-73
2022/03/11 05:56:54;;;;;;;8.87;6.53;;;;;;;;;;4912786;29;20223;-70
2022/03/11 05:59:22;;;;;;;10.00;7.00;;;;;;;;;;4895566;29;20214;-71
2022/03/11 06:01:50;;;;;;;8.87;6.70;;;;;;;;;;4916754;29;20319;-72
2022/03/11 06:04:16;;;;;;;11.10;6.90;;;;;;;;;;4912408;29;20228;-71
2022/03/11 06:06:42;;;;;;;9.30;6.63;;;;;;;;;;4916291;29;20232;-72
2022/03/11 06:09:11;;;;;;;11.33;6.93;;;;;;;;;;4914480;29;20247;-71
2022/03/11 06:11:37;;;;;;;10.30;7.00;;;;;;;;;;4886486;29;20236;-72
2022/03/11 06:14:02;;;;;;;10.03;7.27;;;;;;;;;;4910303;29;20315;-72
2022/03/11 06:16:33;;;;;;;9.90;7.03;;;;;;;;;;4916335;29;20240;-74
2022/03/11 06:18:59;;;;;;;10.53;6.67;;;;;;;;;;4896945;29;20711;-71
2022/03/11 06:21:28;;;;;;;9.43;6.90;;;;;;;;;;4917237;29;20232;-72
2022/03/11 06:23:53;;;;;;;9.83;6.70;;;;;;;;;;4894608;29;20232;-72
2022/03/11 06:26:19;;;;;;;9.57;6.60;;;;;;;;;;4861145;29;20610;-70
2022/03/11 06:28:44;;;;;;;9.47;6.13;;;;;;;;;;4886743;29;20244;-70
2022/03/11 06:31:11;;;;;;;10.27;6.70;;;;;;;;;;4878669;29;20233;-70
2022/03/11 06:33:37;;;;;;;9.93;6.20;;;;;;;;;;4902667;29;20228;-71
2022/03/11 06:36:03;;;;;;;9.63;6.23;;;;;;;;;;4904503;29;20243;-70
2022/03/11 06:38:29;;;;;;;8.80;6.60;;;;;;;;;;4900741;29;20858;-72
2022/03/11 06:40:57;;;;;;;9.70;6.10;;;;;;;;;;4914466;29;20743;-72
2022/03/11 06:43:25;;;;;;;8.87;6.40;;;;;;;;;;4917021;29;20339;-73
2022/03/11 06:45:50;;;;;;;9.53;6.20;;;;;;;;;;4900596;29;20652;-71
2022/03/11 06:48:19;;;;;;;10.63;6.50;;;;;;;;;;4896532;29;20224;-69
2022/03/11 06:50:45;;;;;;;8.67;6.37;;;;;;;;;;4907328;29;20228;-72
2022/03/11 06:53:15;;;;;;;9.37;6.10;;;;;;;;;;4916348;29;20212;-73
2022/03/11 06:55:43;;;;;;;10.70;6.27;;;;;;;;;;4916445;29;20220;-73
2022/03/11 06:58:09;;;;;;;7.10;6.03;;;;;;;;;;4890051;29;20235;-72
2022/03/11 07:00:37;;;;;;;9.33;5.83;;;;;;;;;;4917056;29;20248;-72
2022/03/11 07:03:05;;;;;;;9.40;6.50;;;;;;;;;;4909190;29;20661;-72
2022/03/11 07:05:30;;;;;;;10.20;6.80;;;;;;;;;;4900777;29;20581;-75
2022/03/11 07:07:56;;;;;;;9.87;6.23;;;;;;;;;;4899593;29;20304;-72
2022/03/11 07:10:22;;;;;;;9.27;6.20;;;;;;;;;;4900139;29;20282;-73
2022/03/11 07:12:47;;;;;;;8.40;5.90;;;;;;;;;;4881502;29;20224;-72
2022/03/11 07:15:15;;;;;;;9.00;6.10;;;;;;;;;;4916111;29;20275;-73
2022/03/11 07:17:46;;;;;;;10.23;6.50;;;;;;;;;;4899155;29;20768;-74
2022/03/11 07:20:14;;;;;;;7.87;5.50;;;;;;;;;;4893700;29;20224;-72
2022/03/11 07:22:42;;;;;;;11.30;6.20;;;;;;;;;;4899590;29;20319;-72
2022/03/11 07:25:11;;;;;;;7.57;5.50;;;;;;;;;;4877047;29;20220;-72
2022/03/11 07:27:37;;;;;;;8.73;5.60;;;;;;;;;;4910375;29;20236;-71
2022/03/11 07:30:11;;;;;;;9.37;6.00;;;;;;;;;;4927823;29;20224;-72
2022/03/11 07:32:37;;;;;;;9.27;6.13;;;;;;;;;;4904579;29;20231;-72
2022/03/11 07:35:03;;;;;;;10.87;5.77;;;;;;;;;;4898883;29;20224;-72
2022/03/11 07:37:29;;;;;;;9.47;5.80;;;;;;;;;;4918404;29;20279;-74
2022/03/11 07:39:54;;;;;;;8.93;5.70;;;;;;;;;;4927053;29;20707;-72
2022/03/11 07:42:20;;;;;;;8.83;5.87;;;;;;;;;;4902284;29;20252;-73
2022/03/11 07:44:49;;;;;;;9.90;5.67;;;;;;;;;;4901145;29;20644;-73
2022/03/11 07:47:17;;;;;;;11.07;5.70;;;;;;;;;;4899297;29;20311;-71
2022/03/11 07:49:45;;;;;;;8.20;5.43;;;;;;;;;;4899584;29;20232;-71
2022/03/11 07:52:15;;;;;;;9.77;6.03;;;;;;;;;;4898588;29;20240;-72
2022/03/11 07:54:43;;;;;;;7.47;5.10;;;;;;;;;;4868871;29;20228;-72
2022/03/11 07:57:09;;;;;;;9.87;6.37;;;;;;;;;;4899958;29;20251;-74
2022/03/11 07:59:36;;;;;;;8.97;5.67;;;;;;;;;;4884365;29;20703;-72
2022/03/11 08:02:02;;;;;;;8.77;5.67;;;;;;;;;;4883976;29;20620;-72
2022/03/11 08:04:29;;;;;;;8.87;5.90;;;;;;;;;;4898316;29;20232;-72
2022/03/11 08:06:55;;;;;;;6.90;5.10;;;;;;;;;;4878455;29;20231;-73
2022/03/11 08:09:23;;;;;;;7.23;5.37;;;;;;;;;;4880692;29;20236;-72
2022/03/11 08:11:49;;;;;;;9.27;5.70;;;;;;;;;;4889493;29;20225;-72
2022/03/11 08:14:14;;;;;;;7.73;5.83;;;;;;;;;;4915583;29;20231;-72
2022/03/11 08:16:40;;;;;;;7.63;5.90;;;;;;;;;;4886134;29;20719;-73
2022/03/11 08:19:09;;;;;;;8.97;5.53;;;;;;;;;;4895138;29;20606;-71
2022/03/11 08:21:52;;;;;;;8.77;5.63;;;;;;;;;;4879013;29;20240;-73
2022/03/11 08:24:21;;;;;;;7.93;5.47;;;;;;;;;;4871378;29;20227;-72
2022/03/11 08:26:49;;;;;;;8.07;5.53;;;;;;;;;;4894314;29;20224;-72
2022/03/11 08:29:16;;;;;;;9.30;5.47;;;;;;;;;;4914691;29;20232;-71
2022/03/11 08:31:42;;;;;;;9.47;5.57;;;;;;;;;;4883439;29;20228;-73
2022/03/11 08:34:08;;;;;;;8.40;5.20;;;;;;;;;;4916876;29;20251;-72
2022/03/11 08:36:34;;;;;;;7.90;5.20;;;;;;;;;;4916156;29;20243;-72
2022/03/11 08:39:00;;;;;;;6.80;5.40;;;;;;;;;;4916151;29;20224;-72
2022/03/11 08:41:27;;;;;;;9.33;5.50;;;;;;;;;;4915746;29;20926;-73
2022/03/11 08:43:55;;;;;;;7.57;5.30;;;;;;;;;;4918606;29;20232;-73
2022/03/11 08:46:21;;;;;;;9.30;5.40;;;;;;;;;;4915400;29;20610;-72
2022/03/11 08:48:47;;;;;;;8.27;5.57;;;;;;;;;;4895252;29;20746;-72
2022/03/11 08:51:15;;;;;;;11.23;5.47;;;;;;;;;;4914662;29;20724;-72
2022/03/11 08:53:48;;;;;;;6.93;4.87;;;;;;;;;;4883939;29;20283;-73
2022/03/11 08:56:26;;;;;;;6.63;4.90;;;;;;;;;;4886819;29;20257;-72
2022/03/11 08:58:52;;;;;;;9.37;5.37;;;;;;;;;;4904845;29;20275;-72
2022/03/11 09:01:20;;;;;;;7.37;5.17;;;;;;;;;;4912335;29;20220;-74
2022/03/11 09:03:45;;;;;;;8.10;5.13;;;;;;;;;;4914121;29;20224;-74
2022/03/11 09:06:11;;;;;;;6.40;5.07;;;;;;;;;;4912408;29;20315;-72
2022/03/11 09:08:36;;;;;;;6.67;5.30;;;;;;;;;;4873420;29;20287;-72
2022/03/11 09:11:02;;;;;;;7.37;5.10;;;;;;;;;;4911987;29;20298;-72
2022/03/11 09:13:27;;;;;;;7.20;5.03;;;;;;;;;;4897040;29;20232;-73
2022/03/11 09:15:56;;;;;;;6.80;5.03;;;;;;;;;;4881510;29;20791;-74
2022/03/11 09:18:21;;;;;;;10.43;5.13;;;;;;;;;;4897577;29;20602;-74
2022/03/11 09:20:47;;;;;;;8.50;5.30;;;;;;;;;;4915810;29;20224;-73
2022/03/11 09:23:12;;;;;;;6.47;5.03;;;;;;;;;;4899739;29;20216;-73
2022/03/11 09:25:38;;;;;;;7.83;4.80;;;;;;;;;;4866926;29;20323;-73
2022/03/11 09:28:10;;;;;;;8.43;5.13;;;;;;;;;;4870022;29;20236;-72
2022/03/11 09:30:35;;;;;;;9.60;5.37;;;;;;;;;;4898373;29;20227;-72
2022/03/11 09:33:03;;;;;;;8.67;5.17;;;;;;;;;;4912855;29;20209;-72
2022/03/11 09:35:29;;;;;;;7.80;4.80;;;;;;;;;;4905549;29;20212;-72
2022/03/11 09:37:55;;;;;;;7.87;5.10;;;;;;;;;;4885459;29;20316;-73
2022/03/11 09:40:23;;;;;;;6.30;4.60;;;;;;;;;;4913493;29;20243;-73
2022/03/11 09:42:50;;;;;;;7.67;4.90;;;;;;;;;;4914128;29;20609;-73
2022/03/11 09:45:19;;;;;;;6.60;4.77;;;;;;;;;;4886973;29;20216;-73
2022/03/11 09:47:44;;;;;;;6.10;5.13;;;;;;;;;;4876771;29;20227;-73
2022/03/11 09:50:10;;;;;;;7.43;4.83;;;;;;;;;;4915712;29;20228;-76
2022/03/11 09:52:37;;;;;;;7.13;4.87;;;;;;;;;;4882953;29;20220;-72
2022/03/11 09:55:04;;;;;;;7.43;4.93;;;;;;;;;;4903888;29;20238;-72
2022/03/11 09:57:30;;;;;;;6.43;4.80;;;;;;;;;;4897024;29;20315;-72
2022/03/11 09:59:57;;;;;;;8.00;5.00;;;;;;;;;;4893800;29;20704;-72
2022/03/11 10:02:22;;;;;;;7.00;4.80;;;;;;;;;;4897790;29;20251;-73
2022/03/11 10:04:49;;;;;;;9.00;5.50;;;;;;;;;;4876559;29;20240;-72
2022/03/11 10:07:30;;;;;;;7.63;4.90;;;;;;;;;;4884852;29;20227;-72
2022/03/11 10:09:56;;;;;;;7.57;4.97;;;;;;;;;;4904447;29;20231;-71
2022/03/11 10:12:30;;;;;;;6.13;4.67;;;;;;;;;;4890587;29;20295;-72
2022/03/11 10:15:02;;;;;;;6.17;4.70;;;;;;;;;;4881647;29;20228;-74
2022/03/11 10:17:39;;;;;;;6.30;4.97;;;;;;;;;;4897821;29;20228;-72
2022/03/11 10:20:10;;;;;;;7.47;4.90;;;;;;;;;;4877382;29;20235;-73
2022/03/11 10:22:36;;;;;;;9.07;5.10;;;;;;;;;;4869675;29;20232;-74
2022/03/11 10:25:18;;;;;;;7.43;4.80;;;;;;;;;;4917915;29;20287;-74
2022/03/11 10:28:10;;;;;;;6.03;4.50;;;;;;;;;;4916552;29;20323;-74
2022/03/11 10:30:37;;;;;;;7.43;4.80;;;;;;;;;;4902098;29;20236;-72
2022/03/11 10:33:06;;;;;;;7.50;4.60;;;;;;;;;;4862988;29;20248;-73
2022/03/11 10:35:39;;;;;;;7.50;4.87;;;;;;;;;;4876487;29;20607;-72
2022/03/11 10:38:08;;;;;;;7.57;5.07;;;;;;;;;;4901128;29;20246;-74
2022/03/11 10:40:34;;;;;;;7.87;4.80;;;;;;;;;;4910673;29;20231;-74
2022/03/11 10:43:10;;;;;;;7.00;4.53;;;;;;;;;;4900154;29;20979;-72
2022/03/11 10:45:46;;;;;;;6.57;4.70;;;;;;;;;;4901223;29;20228;-74
2022/03/11 10:48:14;;;;;;;6.23;4.40;;;;;;;;;;4876698;29;20220;-71
2022/03/11 10:50:40;;;;;;;6.70;4.47;;;;;;;;;;4885949;29;20224;-73
2022/03/11 10:53:07;;;;;;;8.13;5.03;;;;;;;;;;4892960;29;20290;-72
2022/03/11 10:55:39;;;;;;;7.90;5.13;;;;;;;;;;4918489;29;20248;-71
2022/03/11 10:58:06;;;;;;;10.20;4.83;;;;;;;;;;4886458;29;20311;-71
2022/03/11 11:00:32;;;;;;;6.93;4.83;;;;;;;;;;4886555;29;20228;-73
2022/03/11 11:03:01;;;;;;;7.10;4.80;;;;;;;;;;4886192;29;20311;-71
2022/03/11 11:05:28;;;;;;;8.73;4.60;;;;;;;;;;4893755;29;20713;-76
2022/03/11 11:07:57;;;;;;;6.63;4.80;;;;;;;;;;4916312;29;20232;-74
2022/03/11 11:10:24;;;;;;;7.27;4.87;;;;;;;;;;4881366;29;20236;-74
2022/03/11 11:12:50;;;;;;;7.93;4.77;;;;;;;;;;4900751;29;20279;-73
2022/03/11 11:15:16;;;;;;;6.43;4.57;;;;;;;;;;4916349;29;20212;-71
2022/03/11 11:17:43;;;;;;;6.67;4.50;;;;;;;;;;4883171;29;20224;-72
2022/03/11 11:20:33;;;;;;;6.30;4.60;;;;;;;;;;4896187;29;20788;-72
2022/03/11 11:23:06;;;;;;;5.37;3.83;;;;;;;;;;4916812;29;20667;-72
2022/03/11 11:25:32;;;;;;;7.10;4.60;;;;;;;;;;4897684;29;20228;-71
2022/03/11 11:28:04;;;;;;;5.50;4.60;;;;;;;;;;4894203;29;20229;-73
2022/03/11 11:30:29;;;;;;;5.73;4.27;;;;;;;;;;4881086;29;20263;-71
2022/03/11 11:32:58;;;;;;;6.20;4.30;;;;;;;;;;4909168;29;20257;-73
2022/03/11 11:35:32;;;;;;;6.03;4.70;;;;;;;;;;4915372;29;20295;-72
2022/03/11 11:38:08;;;;;;;6.00;3.93;;;;;;;;;;4903824;29;20220;-74
2022/03/11 11:40:37;;;;;;;6.57;4.57;;;;;;;;;;4900092;29;20227;-71
2022/03/11 11:43:12;;;;;;;6.47;4.37;;;;;;;;;;4914549;29;20228;-72
2022/03/11 11:45:46;;;;;;;7.27;4.70;;;;;;;;;;4915216;29;20268;-71
2022/03/11 11:48:33;;;;;;;8.47;5.13;;;;;;;;;;4870786;29;20233;-71
2022/03/11 11:51:05;;;;;;;5.13;4.20;;;;;;;;;;4913535;29;20224;-70
2022/03/11 11:53:42;;;;;;;6.83;4.20;;;;;;;;;;4897508;29;20307;-74
2022/03/11 11:56:30;;;;;;;7.50;4.53;;;;;;;;;;4893053;29;20235;-71
2022/03/11 11:58:58;;;;;;;8.20;4.50;;;;;;;;;;4915572;29;20240;-71
2022/03/11 12:01:49;;;;;;;6.10;4.40;;;;;;;;;;4900648;29;20232;-71
2022/03/11 12:04:36;;;;;;;5.07;4.10;;;;;;;;;;4889796;29;20583;-71
2022/03/11 12:07:05;;;;;;;9.47;4.33;;;;;;;;;;4900015;29;20283;-74
2022/03/11 12:09:47;;;;;;;5.97;4.20;;;;;;;;;;4916760;29;20614;-72
2022/03/11 12:12:21;;;;;;;8.50;4.53;;;;;;;;;;4913655;29;20332;-70
2022/03/11 12:14:58;;;;;;;6.47;4.03;;;;;;;;;;4917718;29;20234;-74
2022/03/11 12:17:43;;;;;;;5.60;3.70;;;;;;;;;;4915459;29;20235;-74
2022/03/11 12:20:39;;;;;;;6.17;3.63;;;;;;;;;;4893270;29;20302;-73
2022/03/11 12:23:15;;;;;;;8.20;3.23;;;;;;;;;;4914992;29;20224;-74
2022/03/11 12:25:54;;;;;;;5.17;3.67;;;;;;;;;;4896770;29;20235;-72
2022/03/11 12:28:36;;;;;;;5.67;3.67;;;;;;;;;;4912190;29;20224;-74
2022/03/11 12:31:03;;;;;;;6.27;3.40;;;;;;;;;;4902418;29;20327;-73
2022/03/11 12:33:33;;;;;;;5.03;3.30;;;;;;;;;;4913951;29;20745;-74
2022/03/11 12:35:59;;;;;;;7.30;3.50;;;;;;;;;;4920751;29;20228;-73
2022/03/11 12:38:26;;;;;;;5.10;3.60;;;;;;;;;;4913856;29;20314;-72
2022/03/11 12:40:52;;;;;;;5.60;3.47;;;;;;;;;;4892750;29;20238;-75
2022/03/11 12:43:20;;;;;;;4.23;3.37;;;;;;;;;;4890843;29;20224;-74
2022/03/11 12:45:58;;;;;;;5.90;3.50;;;;;;;;;;4895008;29;20239;-73
2022/03/11 12:48:28;;;;;;;5.57;3.80;;;;;;;;;;4901176;29;20236;-73
2022/03/11 12:50:56;;;;;;;5.27;3.60;;;;;;;;;;4879953;29;20451;-72
2022/03/11 12:53:22;;;;;;;6.10;3.30;;;;;;;;;;4910767;29;20223;-72
2022/03/11 12:55:51;;;;;;;5.60;3.60;;;;;;;;;;4915600;29;20639;-72
2022/03/11 12:58:24;;;;;;;5.80;3.83;;;;;;;;;;4890899;29;20237;-74
2022/03/11 13:00:53;;;;;;;5.20;3.70;;;;;;;;;;4880514;29;20236;-72
2022/03/11 13:03:22;;;;;;;5.63;3.93;;;;;;;;;;4886489;29;20213;-73
2022/03/11 13:05:52;;;;;;;5.90;3.97;;;;;;;;;;4883675;29;20310;-75
2022/03/11 13:08:23;;;;;;;5.57;3.60;;;;;;;;;;4870513;29;20240;-72
2022/03/11 13:10:51;;;;;;;5.83;4.00;;;;;;;;;;4899249;29;20340;-73
2022/03/11 13:13:17;;;;;;;5.90;3.97;;;;;;;;;;4901209;29;20280;-73
2022/03/11 13:15:47;;;;;;;8.33;3.70;;;;;;;;;;4898505;29;20228;-73
2022/03/11 13:18:20;;;;;;;7.33;4.00;;;;;;;;;;4898834;29;20252;-73
2022/03/11 13:21:03;;;;;;;5.83;4.00;;;;;;;;;;4896739;29;20227;-75
2022/03/11 13:23:39;;;;;;;7.23;4.27;;;;;;;;;;4885240;29;20711;-75
2022/03/11 13:26:18;;;;;;;7.03;3.70;;;;;;;;;;4915344;29;20231;-73
2022/03/11 13:28:54;;;;;;;5.73;4.00;;;;;;;;;;4872193;29;20345;-74
2022/03/11 13:31:31;;;;;;;4.90;3.87;;;;;;;;;;4907730;29;20227;-72
2022/03/11 13:33:59;;;;;;;5.70;4.37;;;;;;;;;;4899739;29;20232;-75
2022/03/11 13:36:46;;;;;;;7.00;4.43;;;;;;;;;;4916702;29;20276;-74
2022/03/11 13:39:18;;;;;;;6.03;4.10;;;;;;;;;;4915282;29;20220;-72
2022/03/11 13:41:57;;;;;;;5.10;3.90;;;;;;;;;;4925790;29;20232;-74
2022/03/11 13:44:38;;;;;;;6.43;4.30;;;;;;;;;;4892247;29;20256;-74
2022/03/11 13:47:04;;;;;;;5.47;4.03;;;;;;;;;;4923569;29;20232;-73
2022/03/11 13:49:50;;;;;;;7.57;3.80;;;;;;;;;;4920384;29;20322;-73
2022/03/11 13:52:23;;;;;;;6.23;4.07;;;;;;;;;;4912576;29;20220;-75
2022/03/11 13:54:49;;;;;;;4.83;4.10;;;;;;;;;;4890506;29;20295;-76
2022/03/11 13:57:28;;;;;;;6.77;3.93;;;;;;;;;;4924151;29;20224;-73
2022/03/11 13:59:59;;;;;;;5.80;4.00;;;;;;;;;;4912289;29;20223;-74
2022/03/11 14:02:30;;;;;;;7.73;4.10;;;;;;;;;;4910641;29;20230;-72
2022/03/11 14:05:16;;;;;;;6.00;3.80;;;;;;;;;;4888710;29;20231;-76
2022/03/11 14:07:41;;;;;;;5.10;3.47;;;;;;;;;;4905632;29;20680;-74
2022/03/11 14:10:19;;;;;;;5.53;3.60;;;;;;;;;;4893811;29;20224;-74
2022/03/11 14:12:49;;;;;;;4.43;3.60;;;;;;;;;;4900049;29;20234;-75
2022/03/11 14:15:18;;;;;;;5.67;4.00;;;;;;;;;;4881752;29;20759;-75
2022/03/11 14:17:44;;;;;;;5.80;3.90;;;;;;;;;;4911715;29;20217;-74
2022/03/11 14:20:13;;;;;;;6.37;4.27;;;;;;;;;;4912545;29;20228;-72
2022/03/11 14:22:43;;;;;;;5.30;3.83;;;;;;;;;;4859144;29;20220;-74
2022/03/11 14:25:09;;;;;;;5.93;4.03;;;;;;;;;;4899690;29;20228;-73
2022/03/11 14:27:39;;;;;;;5.93;3.90;;;;;;;;;;4897697;29;20225;-74
2022/03/11 14:30:07;;;;;;;4.97;3.73;;;;;;;;;;4914184;29;20242;-73
2022/03/11 14:32:32;;;;;;;6.17;4.07;;;;;;;;;;4880168;29;20643;-73
2022/03/11 14:35:00;;;;;;;5.40;4.23;;;;;;;;;;4886844;29;20252;-77
2022/03/11 14:37:27;;;;;;;5.83;3.97;;;;;;;;;;4915466;29;20291;-71
2022/03/11 14:39:55;;;;;;;7.17;4.27;;;;;;;;;;4898105;29;20676;-70
2022/03/11 14:42:21;;;;;;;5.50;4.10;;;;;;;;;;4885428;29;20834;-71
2022/03/11 14:44:46;;;;;;;5.30;4.00;;;;;;;;;;4900273;29;20216;-74
2022/03/11 14:47:14;;;;;;;6.37;4.10;;;;;;;;;;4879973;29;20851;-73
2022/03/11 14:49:47;;;;;;;5.83;4.30;;;;;;;;;;4885270;29;20228;-72